Time;durP1;ratioP1;P1;durP2;ratioP2;P2;SDS_P1;SDS_P2;PMS_P1;PMS_P2;Temp;Humidity;BMP_temperature;BMP_pressure;BME280_temperature;BME280_humidity;BME280_pressure;Samples;Min_cycle;Max_cycle;Signal;HPM_P1;HPM_P2
2023/11/11 00:02:26;;;;;;;8.73;7.83;;;;;;;6.97;100.00;98068.19;5074244;28;20266;-79
2023/11/11 00:04:57;;;;;;;7.87;7.20;;;;;;;7.00;100.00;98070.38;5088108;28;20684;-77
2023/11/11 00:07:31;;;;;;;7.93;7.23;;;;;;;7.07;100.00;98062.28;5079811;28;20585;-81
2023/11/11 00:10:00;;;;;;;7.30;6.70;;;;;;;7.05;100.00;98062.50;5076608;28;20196;-79
2023/11/11 00:12:32;;;;;;;7.17;6.57;;;;;;;7.04;100.00;98063.56;5074769;28;20373;-79
2023/11/11 00:15:04;;;;;;;7.63;6.93;;;;;;;7.11;100.00;98060.75;5070949;28;20235;-79
2023/11/11 00:17:32;;;;;;;7.50;6.50;;;;;;;7.08;100.00;98063.91;5072005;28;20209;-80
2023/11/11 00:20:00;;;;;;;6.53;5.93;;;;;;;7.06;100.00;98058.78;5075261;28;20186;-79
2023/11/11 00:22:36;;;;;;;5.70;5.20;;;;;;;7.07;100.00;98059.59;5087926;28;20279;-79
2023/11/11 00:25:16;;;;;;;4.57;4.17;;;;;;;7.12;100.00;98056.25;5074679;28;20749;-81
2023/11/11 00:27:51;;;;;;;3.83;3.50;;;;;;;7.15;100.00;98053.91;5055727;28;20195;-79
2023/11/11 00:30:23;;;;;;;3.13;2.83;;;;;;;7.23;100.00;98053.53;5083473;28;20729;-79
2023/11/11 00:32:55;;;;;;;2.70;2.50;;;;;;;7.24;100.00;98065.00;5081117;28;20216;-78
2023/11/11 00:35:23;;;;;;;2.80;2.60;;;;;;;7.17;100.00;98059.81;5082971;28;20242;-80
2023/11/11 00:37:57;;;;;;;2.70;2.50;;;;;;;7.16;100.00;98063.53;5079558;28;20280;-79
2023/11/11 00:40:29;;;;;;;3.00;2.70;;;;;;;7.15;100.00;98055.75;5077299;28;20307;-80
2023/11/11 00:42:57;;;;;;;3.10;2.80;;;;;;;7.12;100.00;98059.72;5070958;28;20786;-79
2023/11/11 00:45:29;;;;;;;2.40;2.20;;;;;;;7.08;100.00;98059.38;5071961;28;20208;-79
2023/11/11 00:47:57;;;;;;;2.47;2.27;;;;;;;7.09;100.00;98053.00;5072271;28;20197;-80
2023/11/11 00:50:30;;;;;;;2.43;2.20;;;;;;;7.07;100.00;98051.63;5072090;28;20217;-80
2023/11/11 00:52:59;;;;;;;2.53;2.33;;;;;;;7.06;100.00;98055.31;5080176;28;20188;-81
2023/11/11 00:55:30;;;;;;;2.53;2.33;;;;;;;7.04;100.00;98063.56;5072127;28;20303;-79
2023/11/11 00:58:00;;;;;;;2.30;2.10;;;;;;;7.06;100.00;98058.78;5071555;28;20185;-79
2023/11/11 01:00:31;;;;;;;2.67;2.20;;;;;;;7.04;100.00;98063.56;5071181;28;20688;-77
2023/11/11 01:02:59;;;;;;;2.43;2.23;;;;;;;7.01;100.00;98058.69;5084621;28;20191;-79
2023/11/11 01:05:30;;;;;;;2.33;2.13;;;;;;;7.01;100.00;98063.19;5079914;28;20199;-79
2023/11/11 01:07:59;;;;;;;2.20;1.97;;;;;;;6.99;100.00;98058.13;5071111;28;20266;-79
2023/11/11 01:10:34;;;;;;;2.77;1.97;;;;;;;6.99;100.00;98060.78;5073376;28;20197;-78
2023/11/11 01:13:04;;;;;;;1.97;1.87;;;;;;;6.97;100.00;98048.75;5075799;28;20196;-79
2023/11/11 01:15:32;;;;;;;1.93;1.73;;;;;;;6.93;100.00;98043.09;5075446;28;20334;-79
2023/11/11 01:18:05;;;;;;;1.93;1.73;;;;;;;6.91;100.00;98041.69;5075616;28;20192;-79
2023/11/11 01:20:33;;;;;;;1.60;1.50;;;;;;;6.89;100.00;98044.59;5077301;28;20292;-80
2023/11/11 01:23:06;;;;;;;1.70;1.60;;;;;;;6.91;100.00;98042.50;5078841;28;20185;-80
2023/11/11 01:25:37;;;;;;;1.67;1.50;;;;;;;6.91;100.00;98050.47;5079304;28;20204;-80
2023/11/11 01:28:06;;;;;;;1.70;1.60;;;;;;;6.92;100.00;98038.78;5068479;28;20196;-79
2023/11/11 01:30:35;;;;;;;2.07;1.87;;;;;;;6.92;100.00;98035.31;5084716;28;20230;-78
2023/11/11 01:33:08;;;;;;;1.80;1.70;;;;;;;6.93;100.00;98032.44;5077747;28;20215;-79
2023/11/11 01:35:38;;;;;;;1.60;1.50;;;;;;;6.94;100.00;98031.41;5085587;28;20293;-79
2023/11/11 01:38:07;;;;;;;1.90;1.80;;;;;;;6.96;100.00;98028.47;5083171;28;20575;-81
2023/11/11 01:40:39;;;;;;;2.23;1.90;;;;;;;6.94;100.00;98026.06;5083174;28;20668;-79
2023/11/11 01:43:14;;;;;;;2.30;2.10;;;;;;;6.92;100.00;98027.34;5059500;28;20240;-79
2023/11/11 01:45:44;;;;;;;2.07;1.87;;;;;;;6.90;100.00;98022.25;5063742;28;20216;-81
2023/11/11 01:48:14;;;;;;;1.80;1.70;;;;;;;6.89;100.00;98017.16;5074948;28;20254;-82
2023/11/11 01:50:43;;;;;;;2.10;2.00;;;;;;;6.88;100.00;98016.34;5086961;28;20281;-81
2023/11/11 01:53:15;;;;;;;2.17;1.80;;;;;;;6.89;100.00;98011.84;5069519;28;20193;-80
2023/11/11 01:55:43;;;;;;;2.00;1.90;;;;;;;6.87;100.00;98008.59;5082274;28;20224;-79
2023/11/11 01:58:13;;;;;;;2.10;2.00;;;;;;;6.87;100.00;98008.59;5077159;28;20208;-80
2023/11/11 02:00:46;;;;;;;2.40;2.20;;;;;;;6.85;100.00;98005.38;5074284;28;20192;-79
2023/11/11 02:03:14;;;;;;;2.47;2.27;;;;;;;6.84;100.00;98011.72;5077967;28;20721;-80
2023/11/11 02:05:44;;;;;;;2.53;2.33;;;;;;;6.81;100.00;98005.00;5058483;28;20212;-79
2023/11/11 02:08:15;;;;;;;2.37;2.20;;;;;;;6.81;100.00;98004.22;5074430;28;20192;-79
2023/11/11 02:13:37;;;;;;;3.10;2.63;;;;;;;6.80;100.00;98005.25;5071149;28;20208;-80
2023/11/11 02:16:16;;;;;;;2.50;2.30;;;;;;;6.75;100.00;98005.97;5077373;28;20197;-81
2023/11/11 02:18:47;;;;;;;2.40;2.20;;;;;;;6.74;100.00;97990.22;5074509;28;20258;-79
2023/11/11 02:21:14;;;;;;;2.70;2.50;;;;;;;6.70;100.00;97989.06;5080450;28;20192;-78
2023/11/11 02:23:42;;;;;;;3.00;2.70;;;;;;;6.71;100.00;97980.06;5078163;28;20279;-80
2023/11/11 02:26:11;;;;;;;2.80;2.60;;;;;;;6.73;100.00;97977.94;5067935;28;20212;-78
2023/11/11 02:28:42;;;;;;;3.90;3.00;;;;;;;6.74;100.00;97968.94;5061166;28;20207;-81
2023/11/11 02:31:14;;;;;;;3.10;2.90;;;;;;;6.71;100.00;97983.53;5088456;28;20201;-81
2023/11/11 02:33:46;;;;;;;3.40;3.10;;;;;;;6.70;100.00;97983.75;5080040;28;20212;-79
2023/11/11 02:36:19;;;;;;;2.60;2.40;;;;;;;6.70;100.00;97987.22;5082613;28;20283;-79
2023/11/11 02:38:50;;;;;;;2.67;2.47;;;;;;;6.76;100.00;97980.16;5074350;28;20200;-79
2023/11/11 02:41:20;;;;;;;2.83;2.60;;;;;;;6.74;100.00;97976.91;5090281;28;20228;-80
2023/11/11 02:43:51;;;;;;;2.60;2.40;;;;;;;6.77;100.00;97977.25;5084863;28;20199;-78
2023/11/11 02:46:22;;;;;;;2.73;2.50;;;;;;;6.78;100.00;97980.72;5084853;28;20274;-79
2023/11/11 02:48:51;;;;;;;2.80;2.60;;;;;;;6.75;100.00;97974.03;5078329;28;20200;-79
2023/11/11 02:51:23;;;;;;;2.57;2.37;;;;;;;6.78;100.00;97981.53;5072448;28;20354;-80
2023/11/11 02:53:51;;;;;;;2.40;2.20;;;;;;;6.73;100.00;97984.09;5072599;28;20193;-79
2023/11/11 02:56:19;;;;;;;2.53;2.33;;;;;;;6.75;100.00;97983.84;5084050;28;20196;-78
2023/11/11 02:58:47;;;;;;;2.77;2.50;;;;;;;6.78;100.00;97975.41;5086742;28;20196;-80
2023/11/11 03:01:20;;;;;;;3.23;2.90;;;;;;;6.80;100.00;97975.97;5074424;28;20266;-81
2023/11/11 03:03:54;;;;;;;2.90;2.70;;;;;;;6.82;100.00;97972.03;5077824;28;20200;-79
2023/11/11 03:06:28;;;;;;;2.87;2.67;;;;;;;6.83;100.00;97973.66;5087778;28;20672;-78
2023/11/11 03:08:58;;;;;;;3.27;2.80;;;;;;;6.86;100.00;97964.41;5082267;28;20205;-79
2023/11/11 03:11:26;;;;;;;2.97;2.77;;;;;;;6.89;100.00;97970.06;5076084;28;20196;-79
2023/11/11 03:13:54;;;;;;;2.63;2.43;;;;;;;6.91;100.00;97965.28;5062475;28;20219;-80
2023/11/11 03:16:36;;;;;;;3.43;3.13;;;;;;;6.95;100.00;97953.13;5052678;28;20201;-80
2023/11/11 03:19:08;;;;;;;2.83;2.63;;;;;;;6.93;100.00;97963.22;5074813;28;20688;-78
2023/11/11 03:21:35;;;;;;;3.00;2.80;;;;;;;6.92;100.00;97961.59;5080104;28;20188;-78
2023/11/11 03:24:06;;;;;;;3.10;2.80;;;;;;;6.99;100.00;97956.94;5083894;28;20223;-79
2023/11/11 03:26:35;;;;;;;2.90;2.63;;;;;;;6.96;100.00;97951.25;5077956;28;20197;-78
2023/11/11 03:29:02;;;;;;;2.93;2.73;;;;;;;6.93;100.00;97955.22;5074492;28;20197;-79
2023/11/11 03:31:32;;;;;;;2.70;2.50;;;;;;;6.92;100.00;97950.94;5073160;28;20193;-78
2023/11/11 03:33:59;;;;;;;2.63;2.30;;;;;;;6.96;100.00;97951.25;5072762;28;20203;-80
2023/11/11 03:36:30;;;;;;;3.43;2.30;;;;;;;7.04;100.00;97953.56;5071891;28;20203;-80
2023/11/11 03:38:59;;;;;;;2.60;2.30;;;;;;;6.99;100.00;97951.63;5073184;28;20197;-80
2023/11/11 03:41:28;;;;;;;4.27;2.40;;;;;;;6.96;100.00;97951.25;5071440;28;20294;-82
2023/11/11 03:43:57;;;;;;;2.53;2.27;;;;;;;6.97;100.00;97942.25;5071992;28;20216;-81
2023/11/11 03:46:28;;;;;;;2.23;2.10;;;;;;;6.95;100.00;97941.69;5073027;28;20185;-78
2023/11/11 03:48:59;;;;;;;2.30;2.10;;;;;;;6.93;100.00;97946.41;5073170;28;20199;-81
2023/11/11 03:51:27;;;;;;;2.27;2.00;;;;;;;6.89;100.00;97946.09;5077044;28;20236;-80
2023/11/11 03:53:58;;;;;;;3.30;1.87;;;;;;;6.88;100.00;97947.13;5079927;28;20250;-77
2023/11/11 03:56:31;;;;;;;2.63;2.17;;;;;;;6.91;100.00;97938.66;5072946;28;20199;-78
2023/11/11 03:59:05;;;;;;;2.57;1.77;;;;;;;6.96;100.00;97941.44;5072943;28;20201;-79
2023/11/11 04:01:40;;;;;;;2.43;2.00;;;;;;;7.01;100.00;97932.72;5074494;28;20241;-79
2023/11/11 04:04:09;;;;;;;2.73;1.50;;;;;;;6.95;100.00;97937.13;5072614;28;20207;-80
2023/11/11 04:06:42;;;;;;;1.77;1.30;;;;;;;6.97;100.00;97940.38;5080601;28;20224;-79
2023/11/11 04:09:13;;;;;;;1.77;1.67;;;;;;;7.03;100.00;97943.97;5075544;28;20203;-81
2023/11/11 04:11:42;;;;;;;1.47;1.23;;;;;;;7.05;100.00;97944.50;5060552;28;20607;-80
2023/11/11 04:14:10;;;;;;;1.47;1.17;;;;;;;7.04;100.00;97938.41;5085279;28;20671;-79
2023/11/11 04:16:38;;;;;;;1.43;1.10;;;;;;;7.08;100.00;97936.88;5079187;28;20210;-81
2023/11/11 04:19:08;;;;;;;1.87;1.33;;;;;;;7.11;100.00;97929.44;5070818;28;20208;-80
2023/11/11 04:21:37;;;;;;;1.30;1.20;;;;;;;7.05;100.00;97923.22;5059869;28;20212;-79
2023/11/11 04:24:05;;;;;;;1.30;1.10;;;;;;;7.07;100.00;97927.28;5081471;28;20193;-80
2023/11/11 04:26:34;;;;;;;1.47;0.90;;;;;;;6.97;100.00;97921.75;5079131;28;20232;-81
2023/11/11 04:29:02;;;;;;;1.63;0.90;;;;;;;7.04;100.00;97922.44;5074677;28;20211;-79
2023/11/11 04:31:30;;;;;;;1.90;1.03;;;;;;;6.98;100.00;97917.25;5079738;28;20212;-79
2023/11/11 04:33:59;;;;;;;1.10;0.80;;;;;;;6.93;100.00;97917.13;5069599;28;20669;-79
2023/11/11 04:36:27;;;;;;;2.00;0.93;;;;;;;6.96;100.00;97912.13;5072038;28;20219;-78
2023/11/11 04:38:55;;;;;;;1.30;1.00;;;;;;;6.95;100.00;97917.72;5070335;28;20287;-81
2023/11/11 04:41:26;;;;;;;0.80;0.70;;;;;;;6.88;100.00;97917.84;5071709;28;20232;-80
2023/11/11 04:43:54;;;;;;;1.00;0.90;;;;;;;6.88;100.00;97915.19;5071413;28;20197;-79
2023/11/11 04:46:30;;;;;;;1.03;0.73;;;;;;;6.82;100.00;97918.78;5073477;28;20193;-81
2023/11/11 04:48:58;;;;;;;0.73;0.73;;;;;;;6.88;100.00;97911.72;5080096;28;20203;-79
2023/11/11 04:51:26;;;;;;;1.03;0.80;;;;;;;6.83;100.00;97919.59;5087155;28;20217;-79
2023/11/11 04:53:54;;;;;;;0.80;0.73;;;;;;;6.80;100.00;97914.75;5071468;28;20199;-78
2023/11/11 04:56:30;;;;;;;1.60;1.07;;;;;;;6.80;100.00;97917.41;5056125;28;20224;-79
2023/11/11 04:58:58;;;;;;;1.10;0.80;;;;;;;6.80;100.00;97920.91;5070207;28;20208;-80
2023/11/11 05:01:26;;;;;;;1.50;1.00;;;;;;;6.81;100.00;97927.03;5073765;28;20200;-81
2023/11/11 05:03:55;;;;;;;1.43;0.80;;;;;;;6.86;100.00;97919.94;5078644;28;20191;-79
2023/11/11 05:06:24;;;;;;;1.17;0.70;;;;;;;6.85;100.00;97920.19;5070560;28;20677;-80
2023/11/11 05:08:54;;;;;;;1.00;0.80;;;;;;;6.79;100.00;97921.13;5071375;28;20688;-79
2023/11/11 05:11:23;;;;;;;2.10;0.80;;;;;;;6.79;100.00;97919.28;5060982;28;20189;-80
2023/11/11 05:13:51;;;;;;;1.30;0.70;;;;;;;6.77;100.00;97924.00;5077870;28;20181;-79
2023/11/11 05:16:38;;;;;;;0.80;0.80;;;;;;;6.77;100.00;97928.53;5071686;28;20216;-79
2023/11/11 05:19:12;;;;;;;1.40;0.70;;;;;;;6.73;100.00;97925.53;5071006;28;20291;-82
2023/11/11 05:21:43;;;;;;;1.00;0.83;;;;;;;6.71;100.00;97922.31;5070470;28;20817;-80
2023/11/11 05:24:13;;;;;;;2.63;0.90;;;;;;;6.71;100.00;97938.28;5076913;28;20199;-79
2023/11/11 05:26:44;;;;;;;0.77;0.70;;;;;;;6.68;100.00;97928.09;5060582;28;20200;-81
2023/11/11 05:29:12;;;;;;;1.20;0.60;;;;;;;6.68;100.00;97928.09;5089833;28;20685;-80
2023/11/11 05:31:41;;;;;;;1.43;1.00;;;;;;;6.67;100.00;97931.00;5071557;28;20247;-82
2023/11/11 05:34:10;;;;;;;1.53;0.70;;;;;;;6.62;100.00;97924.50;5082160;28;20664;-79
2023/11/11 05:36:38;;;;;;;1.50;0.77;;;;;;;6.61;100.00;97922.91;5078712;28;20227;-81
2023/11/11 05:39:07;;;;;;;1.37;0.77;;;;;;;6.59;100.00;97919.66;5066609;28;20209;-79
2023/11/11 05:41:37;;;;;;;1.00;0.70;;;;;;;6.62;100.00;97929.06;5074258;28;20239;-80
2023/11/11 05:44:06;;;;;;;1.13;0.60;;;;;;;6.65;100.00;97931.22;5082543;28;20675;-79
2023/11/11 05:46:35;;;;;;;0.67;0.60;;;;;;;6.64;100.00;97933.09;5074575;28;20649;-79
2023/11/11 05:49:03;;;;;;;1.73;0.87;;;;;;;6.69;100.00;97937.69;5069625;28;20196;-78
2023/11/11 05:51:33;;;;;;;0.53;0.53;;;;;;;6.64;100.00;97946.38;5070029;28;20281;-79
2023/11/11 05:54:05;;;;;;;1.17;0.53;;;;;;;6.75;100.00;97938.63;5074275;28;20656;-80
2023/11/11 05:56:32;;;;;;;1.03;0.60;;;;;;;6.75;100.00;97944.75;5079704;28;20212;-79
2023/11/11 05:59:04;;;;;;;1.07;0.60;;;;;;;6.73;100.00;97944.16;5080697;28;20669;-79
2023/11/11 06:01:33;;;;;;;0.97;0.50;;;;;;;6.79;100.00;97947.75;5085939;28;20208;-81
2023/11/11 06:04:04;;;;;;;1.03;0.70;;;;;;;6.76;100.00;97943.72;5076372;28;20204;-79
2023/11/11 06:06:41;;;;;;;1.30;0.70;;;;;;;6.78;100.00;97959.44;5083270;28;20210;-80
2023/11/11 06:09:18;;;;;;;1.43;0.63;;;;;;;6.77;100.00;97963.94;5083033;28;20297;-82
2023/11/11 06:11:47;;;;;;;0.97;0.70;;;;;;;6.76;100.00;97956.22;5082082;28;20197;-79
2023/11/11 06:14:18;;;;;;;1.80;0.80;;;;;;;6.75;100.00;97966.03;5089718;28;20200;-78
2023/11/11 06:16:48;;;;;;;0.90;0.70;;;;;;;6.76;100.00;97969.50;5084974;28;20224;-78
2023/11/11 06:19:17;;;;;;;1.83;0.70;;;;;;;6.77;100.00;97973.78;5085717;28;20215;-79
2023/11/11 06:21:47;;;;;;;1.57;0.70;;;;;;;6.76;100.00;97970.31;5074502;28;20235;-79
2023/11/11 06:24:17;;;;;;;0.70;0.70;;;;;;;6.78;100.00;97975.41;5077836;28;20261;-79
2023/11/11 06:26:45;;;;;;;1.03;0.60;;;;;;;6.77;100.00;97971.91;5074300;28;20198;-79
2023/11/11 06:29:20;;;;;;;0.60;0.50;;;;;;;6.77;100.00;97977.25;5082291;28;20570;-80
2023/11/11 06:31:47;;;;;;;0.90;0.60;;;;;;;6.76;100.00;97975.66;5082083;28;20219;-80
2023/11/11 06:34:19;;;;;;;1.83;0.80;;;;;;;6.76;100.00;97975.66;5078415;28;20212;-79
2023/11/11 06:36:53;;;;;;;2.23;0.87;;;;;;;6.80;100.00;97970.66;5080401;28;20247;-79
2023/11/11 06:39:24;;;;;;;0.80;0.60;;;;;;;6.77;100.00;97974.59;5077444;28;20200;-79
2023/11/11 06:41:54;;;;;;;2.20;0.60;;;;;;;6.76;100.00;97972.19;5094205;28;20729;-80
2023/11/11 06:44:22;;;;;;;1.00;0.70;;;;;;;6.81;100.00;97977.59;5083624;28;20246;-81
2023/11/11 06:46:51;;;;;;;1.83;0.80;;;;;;;6.81;100.00;97978.38;5081826;28;20220;-80
2023/11/11 06:49:20;;;;;;;1.77;0.80;;;;;;;6.82;100.00;97982.69;5078265;28;20210;-79
2023/11/11 06:51:49;;;;;;;1.17;0.70;;;;;;;6.82;100.00;97974.69;5074109;28;20221;-78
2023/11/11 06:54:20;;;;;;;1.23;0.90;;;;;;;6.82;100.00;97974.69;5075309;28;20539;-81
2023/11/11 06:56:49;;;;;;;1.63;0.87;;;;;;;6.83;100.00;97971.00;5085126;28;20230;-79
2023/11/11 06:59:16;;;;;;;2.20;0.90;;;;;;;6.86;100.00;97975.84;5088691;28;20196;-79
2023/11/11 07:01:52;;;;;;;2.17;0.80;;;;;;;6.89;100.00;97979.91;5085212;28;20690;-80
2023/11/11 07:04:22;;;;;;;1.40;0.77;;;;;;;6.92;100.00;97984.72;5073394;28;20238;-80
2023/11/11 07:06:52;;;;;;;1.43;0.93;;;;;;;6.94;100.00;97987.97;5073840;28;20193;-79
2023/11/11 07:09:23;;;;;;;1.67;1.20;;;;;;;6.95;100.00;97994.94;5072843;28;20201;-81
2023/11/11 07:11:52;;;;;;;2.47;1.90;;;;;;;6.98;100.00;97991.78;5076077;28;20218;-80
2023/11/11 07:14:22;;;;;;;1.90;1.60;;;;;;;6.98;100.00;97995.25;5079004;28;20216;-82
2023/11/11 07:16:49;;;;;;;1.60;0.97;;;;;;;6.99;100.00;97985.44;5077853;28;20219;-79
2023/11/11 07:19:18;;;;;;;1.27;0.80;;;;;;;7.02;100.00;97980.44;5082467;28;20196;-78
2023/11/11 07:21:47;;;;;;;15.00;13.80;;;;;;;7.06;100.00;97991.41;5061541;28;20205;-79
2023/11/11 07:24:37;;;;;;;2.80;2.60;;;;;;;7.16;100.00;98001.44;5077825;28;20200;-82
2023/11/11 07:27:05;;;;;;;4.30;2.43;;;;;;;7.18;100.00;98013.50;5088234;28;20181;-79
2023/11/11 07:29:36;;;;;;;1.97;1.50;;;;;;;7.08;100.00;98018.63;5093518;28;20241;-82
2023/11/11 07:32:04;;;;;;;2.23;1.30;;;;;;;7.09;100.00;98017.59;5071821;28;20285;-78
2023/11/11 07:34:32;;;;;;;1.30;1.00;;;;;;;7.12;100.00;98019.78;5063674;28;20658;-78
2023/11/11 07:37:03;;;;;;;1.57;1.00;;;;;;;7.21;100.00;98023.69;5091676;28;20224;-80
2023/11/11 07:39:31;;;;;;;2.83;0.90;;;;;;;7.31;100.00;98023.88;5084236;28;20204;-83
2023/11/11 07:41:58;;;;;;;3.43;1.30;;;;;;;7.39;100.00;98020.00;5073934;28;20233;-79
2023/11/11 07:44:34;;;;;;;1.60;1.10;;;;;;;7.47;100.00;98019.63;5087983;28;20212;-79
2023/11/11 07:47:06;;;;;;;2.40;1.00;;;;;;;7.57;100.00;98033.16;5078788;28;20193;-79
2023/11/11 07:49:39;;;;;;;1.90;1.17;;;;;;;7.63;100.00;98034.06;5083284;28;20195;-80
2023/11/11 07:52:12;;;;;;;1.77;1.40;;;;;;;7.63;100.00;98040.19;5082936;28;20215;-80
2023/11/11 07:54:39;;;;;;;4.73;2.93;;;;;;;7.69;100.00;98035.75;5084558;28;20238;-80
2023/11/11 07:57:15;;;;;;;4.10;2.07;;;;;;;7.74;100.00;98036.66;5084424;28;20223;-81
2023/11/11 07:59:46;;;;;;;5.50;4.10;;;;;;;7.83;100.00;98035.22;5076872;28;20207;-78
2023/11/11 08:02:18;;;;;;;18.23;14.10;;;;;;;7.90;100.00;98027.88;5082167;28;20279;-79
2023/11/11 08:07:41;;;;;;;12.60;8.70;;;;;;;8.03;100.00;98053.41;5092277;28;20199;-81
2023/11/11 08:10:15;;;;;;;9.63;6.97;;;;;;;8.16;100.00;98054.97;5079063;28;20219;-78
2023/11/11 08:12:46;;;;;;;7.07;4.60;;;;;;;8.27;100.00;98057.56;5076866;28;20196;-79
2023/11/11 08:15:16;;;;;;;3.77;2.60;;;;;;;8.37;100.00;98052.41;5086918;28;20656;-78
2023/11/11 08:17:49;;;;;;;2.73;1.50;;;;;;;8.49;100.00;98057.66;5076814;28;20278;-79
2023/11/11 08:20:16;;;;;;;2.27;1.70;;;;;;;8.64;100.00;98057.88;5088567;28;20196;-77
2023/11/11 08:22:46;;;;;;;3.93;2.00;;;;;;;8.87;100.00;98056.88;5091916;28;20212;-80
2023/11/11 08:25:19;;;;;;;2.43;1.30;;;;;;;9.00;100.00;98061.06;5073683;28;20253;-80
2023/11/11 08:27:49;;;;;;;3.00;1.00;;;;;;;9.14;100.00;98065.78;5080889;28;20196;-80
2023/11/11 08:30:21;;;;;;;1.67;0.90;;;;;;;9.30;100.00;98061.44;5067535;28;20209;-78
2023/11/11 08:32:54;;;;;;;2.33;0.97;;;;;;;9.36;100.00;98052.44;5072105;28;20211;-79
2023/11/11 08:35:22;;;;;;;1.77;1.10;;;;;;;9.33;100.00;98068.97;5056015;28;20200;-79
2023/11/11 08:37:52;;;;;;;1.87;0.93;;;;;;;9.21;100.00;98057.56;5079332;28;20193;-79
2023/11/11 08:40:20;;;;;;;1.80;1.13;;;;;;;9.20;100.00;98063.97;5080512;28;20203;-78
2023/11/11 08:42:47;;;;;;;1.27;0.90;;;;;;;9.16;100.00;98069.00;5072120;28;20225;-79
2023/11/11 08:45:20;;;;;;;2.27;1.20;;;;;;;9.04;100.00;98070.19;5059036;28;20722;-82
2023/11/11 08:47:50;;;;;;;1.23;0.87;;;;;;;9.22;100.00;98059.19;5063626;28;20204;-79
2023/11/11 08:50:19;;;;;;;2.23;1.10;;;;;;;9.27;100.00;98059.25;5081631;28;20274;-79
2023/11/11 08:52:46;;;;;;;1.03;0.87;;;;;;;9.42;100.00;98056.78;5078942;28;20193;-78
2023/11/11 08:55:18;;;;;;;1.37;0.90;;;;;;;9.49;100.00;98059.25;5080027;28;20195;-79
2023/11/11 08:57:45;;;;;;;3.53;0.97;;;;;;;9.47;100.00;98064.06;5081278;28;20220;-79
2023/11/11 09:00:15;;;;;;;1.17;0.93;;;;;;;9.66;100.00;98059.97;5074671;28;20250;-78
2023/11/11 09:02:42;;;;;;;3.23;1.00;;;;;;;9.90;100.00;98060.47;5086616;28;20271;-79
2023/11/11 09:05:13;;;;;;;0.80;0.60;;;;;;;9.97;100.00;98063.75;5057770;28;20201;-79
2023/11/11 09:07:43;;;;;;;1.60;0.60;;;;;;;10.12;100.00;98062.00;5081416;28;20204;-79
2023/11/11 09:10:12;;;;;;;1.03;0.60;;;;;;;10.29;100.00;98061.94;5085184;28;20193;-80
2023/11/11 09:12:40;;;;;;;0.60;0.40;;;;;;;10.38;100.00;98064.94;5070310;28;20196;-79
2023/11/11 09:15:08;;;;;;;1.57;0.50;;;;;;;10.50;100.00;98057.53;5055086;28;20214;-79
2023/11/11 09:17:40;;;;;;;0.83;0.60;;;;;;;10.52;100.00;98058.91;5088731;28;20218;-79
2023/11/11 09:20:15;;;;;;;1.30;0.60;;;;;;;10.70;100.00;98057.69;5089157;28;20200;-79
2023/11/11 09:22:43;;;;;;;1.00;0.40;;;;;;;10.83;100.00;98061.75;5080845;28;20207;-79
2023/11/11 09:25:11;;;;;;;0.63;0.40;;;;;;;10.90;100.00;98043.59;5077058;28;20199;-79
2023/11/11 09:27:41;;;;;;;0.80;0.40;;;;;;;10.78;100.00;98051.06;5071934;28;20196;-79
2023/11/11 09:30:13;;;;;;;0.50;0.20;;;;;;;10.86;100.00;98043.31;5072403;28;20189;-79
2023/11/11 09:32:43;;;;;;;0.30;0.30;;;;;;;10.76;100.00;98050.50;5080029;28;20216;-81
2023/11/11 09:35:13;;;;;;;0.60;0.40;;;;;;;10.73;100.00;98042.97;5082897;28;20200;-80
2023/11/11 09:37:44;;;;;;;0.57;0.30;;;;;;;10.91;100.00;98038.00;5076568;28;20697;-80
2023/11/11 09:40:17;;;;;;;4.70;3.83;;;;;;;11.04;100.00;98034.03;5082828;28;20676;-79
2023/11/11 09:42:44;;;;;;;0.63;0.63;;;;;;;11.13;100.00;98023.63;5081517;28;20224;-79
2023/11/11 09:45:15;;;;;;;0.43;0.40;;;;;;;11.14;100.00;98022.56;5086579;28;20194;-78
2023/11/11 09:47:48;;;;;;;0.53;0.43;;;;;;;11.14;100.00;98022.56;5082818;28;20192;-79
2023/11/11 09:50:19;;;;;;;0.40;0.23;;;;;;;11.26;100.00;98023.13;5060601;28;20247;-80
2023/11/11 09:52:49;;;;;;;0.37;0.17;;;;;;;11.21;100.00;98020.41;5086744;28;20200;-80
2023/11/11 09:55:18;;;;;;;0.63;0.20;;;;;;;11.33;100.00;98016.47;5057605;28;20231;-79
2023/11/11 09:57:47;;;;;;;0.20;0.20;;;;;;;11.55;100.00;98018.13;5068575;28;20223;-80
2023/11/11 10:00:16;;;;;;;0.40;0.23;;;;;;;11.32;100.00;98004.13;5081539;28;20729;-78
2023/11/11 10:02:45;;;;;;;0.20;0.20;;;;;;;11.36;100.00;97991.81;5077897;28;20196;-79
2023/11/11 10:05:16;;;;;;;0.40;0.10;;;;;;;11.25;100.00;97986.66;5090110;28;20197;-79
2023/11/11 10:07:51;;;;;;;1.60;0.20;;;;;;;11.48;100.00;97995.03;5073660;28;20199;-80
2023/11/11 10:10:19;;;;;;;0.20;0.13;;;;;;;11.42;100.00;97987.25;5074917;28;20196;-80
2023/11/11 10:12:46;;;;;;;0.20;0.20;;;;;;;11.27;100.00;97987.22;5073220;28;20192;-79
2023/11/11 10:15:14;;;;;;;0.20;0.20;;;;;;;11.23;100.00;97994.16;5086023;28;20189;-79
2023/11/11 10:17:45;;;;;;;0.27;0.27;;;;;;;11.28;100.00;97992.31;5078307;28;20219;-81
2023/11/11 10:20:15;;;;;;;0.50;0.40;;;;;;;11.19;100.00;97977.81;5081230;28;20207;-80
2023/11/11 10:22:47;;;;;;;0.10;0.10;;;;;;;11.17;100.00;97971.91;5073485;28;20205;-82
2023/11/11 10:25:18;;;;;;;0.20;0.20;;;;;;;11.08;100.00;97980.72;5079206;28;20205;-78
2023/11/11 10:27:51;;;;;;;0.40;0.20;;;;;;;11.14;100.00;97967.06;5087707;28;20189;-81
2023/11/11 10:30:24;;;;;;;0.20;0.20;;;;;;;11.28;100.00;97981.59;5084887;28;20661;-79
2023/11/11 10:32:53;;;;;;;0.30;0.20;;;;;;;11.26;100.00;97973.00;5076886;28;20246;-81
2023/11/11 10:35:31;;;;;;;0.30;0.20;;;;;;;11.45;100.00;97966.06;5091371;28;20187;-81
2023/11/11 10:38:04;;;;;;;0.83;0.20;;;;;;;11.57;100.00;97976.53;5089178;28;20270;-79
2023/11/11 10:40:31;;;;;;;0.43;0.20;;;;;;;11.58;100.00;97967.44;5079565;28;20193;-77
2023/11/11 10:42:59;;;;;;;0.23;0.23;;;;;;;11.62;100.00;97975.78;5078328;28;20282;-79
2023/11/11 10:45:30;;;;;;;0.27;0.20;;;;;;;11.53;100.00;97980.03;5076766;28;20201;-77
2023/11/11 10:47:58;;;;;;;0.37;0.20;;;;;;;11.54;100.00;97968.22;5086501;28;20197;-78
2023/11/11 10:50:30;;;;;;;0.27;0.27;;;;;;;11.48;100.00;97965.53;5073655;28;20213;-78
2023/11/11 10:53:04;;;;;;;0.40;0.37;;;;;;;11.64;100.00;97973.63;5086525;28;20227;-78
2023/11/11 10:55:35;;;;;;;0.20;0.10;;;;;;;11.42;100.00;97958.56;5068023;28;20703;-79
2023/11/11 10:58:07;;;;;;;0.40;0.20;;;;;;;11.48;100.00;97965.53;5077719;28;20335;-79
2023/11/11 11:00:36;;;;;;;1.70;0.20;;;;;;;11.47;100.00;97949.72;5089046;28;20279;-79
2023/11/11 11:03:04;;;;;;;0.67;0.30;;;;;;;11.57;100.00;97962.34;5082287;28;20205;-80
2023/11/11 11:05:40;;;;;;;0.20;0.20;;;;;;;11.65;100.00;97951.91;5073964;28;20193;-80
2023/11/11 11:08:31;;;;;;;0.20;0.20;;;;;;;11.54;100.00;97946.78;5072826;28;20694;-78
2023/11/11 11:11:19;;;;;;;0.30;0.30;;;;;;;11.56;100.00;97952.69;5072916;28;20193;-78
2023/11/11 11:13:57;;;;;;;0.80;0.53;;;;;;;11.60;100.00;97943.84;5085083;28;20204;-80
2023/11/11 11:16:28;;;;;;;0.47;0.33;;;;;;;11.60;100.00;97935.81;5075654;28;20213;-80
2023/11/11 11:18:59;;;;;;;1.23;0.70;;;;;;;11.51;100.00;97936.59;5073558;28;20189;-81
2023/11/11 11:21:33;;;;;;;0.40;0.30;;;;;;;11.42;100.00;97950.53;5053387;28;20228;-80
2023/11/11 11:24:11;;;;;;;1.03;0.40;;;;;;;11.54;100.00;97954.81;5082066;28;20197;-80
2023/11/11 11:26:38;;;;;;;0.30;0.30;;;;;;;11.53;100.00;97950.53;5072616;28;20578;-79
2023/11/11 11:29:11;;;;;;;0.43;0.40;;;;;;;11.67;100.00;97951.63;5074640;28;20247;-80
2023/11/11 11:32:02;;;;;;;1.13;0.30;;;;;;;11.57;100.00;97954.31;5088594;28;20215;-80
2023/11/11 11:34:30;;;;;;;0.20;0.20;;;;;;;11.34;100.00;97950.22;5089136;28;20192;-79
2023/11/11 11:37:00;;;;;;;0.70;0.30;;;;;;;11.37;100.00;97939.78;5092434;28;20216;-79
2023/11/11 11:39:44;;;;;;;0.27;0.27;;;;;;;11.35;100.00;97958.00;5092016;28;20325;-80
2023/11/11 11:42:24;;;;;;;0.40;0.40;;;;;;;11.41;100.00;97946.22;5068856;28;20260;-79
2023/11/11 11:44:59;;;;;;;0.47;0.40;;;;;;;11.44;100.00;97950.25;5083763;28;20219;-78
2023/11/11 11:47:33;;;;;;;0.30;0.30;;;;;;;11.41;100.00;97950.78;5079047;28;20279;-78
2023/11/11 11:50:05;;;;;;;0.60;0.30;;;;;;;11.34;100.00;97959.06;5091892;28;20220;-80
2023/11/11 11:52:35;;;;;;;1.87;0.50;;;;;;;11.21;100.00;97953.41;5091531;28;20203;-78
2023/11/11 11:55:06;;;;;;;0.40;0.40;;;;;;;11.09;100.00;97950.16;5080208;28;20200;-78